sensor_id;sensor_type;location;lat;lon;timestamp;temperature;humidity
4411;DHT22;2218;51.408;7.208;2022-08-21T00:00:10;25.50;52.00
4411;DHT22;2218;51.408;7.208;2022-08-21T00:02:46;25.50;52.00
4411;DHT22;2218;51.408;7.208;2022-08-21T00:05:21;25.50;52.00
4411;DHT22;2218;51.408;7.208;2022-08-21T00:07:49;25.50;52.00
4411;DHT22;2218;51.408;7.208;2022-08-21T00:10:18;25.50;52.00
4411;DHT22;2218;51.408;7.208;2022-08-21T00:12:46;25.50;52.00
4411;DHT22;2218;51.408;7.208;2022-08-21T00:15:16;25.50;52.00
4411;DHT22;2218;51.408;7.208;2022-08-21T00:17:46;25.50;52.00
4411;DHT22;2218;51.408;7.208;2022-08-21T00:20:16;25.50;52.00
4411;DHT22;2218;51.408;7.208;2022-08-21T00:22:45;25.50;52.00
4411;DHT22;2218;51.408;7.208;2022-08-21T00:25:13;25.50;52.00
4411;DHT22;2218;51.408;7.208;2022-08-21T00:27:42;25.50;52.00
4411;DHT22;2218;51.408;7.208;2022-08-21T00:30:12;25.50;52.00
4411;DHT22;2218;51.408;7.208;2022-08-21T00:32:41;25.50;52.00
4411;DHT22;2218;51.408;7.208;2022-08-21T00:35:12;25.50;52.00
4411;DHT22;2218;51.408;7.208;2022-08-21T00:37:41;25.50;52.00
4411;DHT22;2218;51.408;7.208;2022-08-21T00:40:15;25.50;52.10
4411;DHT22;2218;51.408;7.208;2022-08-21T00:42:43;25.40;52.00
4411;DHT22;2218;51.408;7.208;2022-08-21T00:45:11;25.50;52.10
4411;DHT22;2218;51.408;7.208;2022-08-21T00:47:38;25.40;52.00
4411;DHT22;2218;51.408;7.208;2022-08-21T00:50:09;25.50;52.00
4411;DHT22;2218;51.408;7.208;2022-08-21T00:52:38;25.40;52.00
4411;DHT22;2218;51.408;7.208;2022-08-21T00:55:08;25.40;52.00
4411;DHT22;2218;51.408;7.208;2022-08-21T00:57:40;25.40;52.00
4411;DHT22;2218;51.408;7.208;2022-08-21T01:00:14;25.40;51.90
4411;DHT22;2218;51.408;7.208;2022-08-21T01:02:44;25.40;51.90
4411;DHT22;2218;51.408;7.208;2022-08-21T01:05:12;25.40;52.00
4411;DHT22;2218;51.408;7.208;2022-08-21T01:07:41;25.40;51.90
4411;DHT22;2218;51.408;7.208;2022-08-21T01:10:12;25.40;52.00
4411;DHT22;2218;51.408;7.208;2022-08-21T01:12:40;25.40;52.00
4411;DHT22;2218;51.408;7.208;2022-08-21T01:15:08;25.40;52.00
4411;DHT22;2218;51.408;7.208;2022-08-21T01:17:37;25.40;52.00
4411;DHT22;2218;51.408;7.208;2022-08-21T01:20:08;25.40;52.00
4411;DHT22;2218;51.408;7.208;2022-08-21T01:22:39;25.40;52.00
4411;DHT22;2218;51.408;7.208;2022-08-21T01:25:07;25.40;52.00
4411;DHT22;2218;51.408;7.208;2022-08-21T01:27:36;25.40;52.00
4411;DHT22;2218;51.408;7.208;2022-08-21T01:30:09;25.40;52.00
4411;DHT22;2218;51.408;7.208;2022-08-21T01:32:40;25.40;52.00
4411;DHT22;2218;51.408;7.208;2022-08-21T01:35:09;25.40;52.00
4411;DHT22;2218;51.408;7.208;2022-08-21T01:37:39;25.40;52.00
4411;DHT22;2218;51.408;7.208;2022-08-21T01:40:07;25.40;52.00
4411;DHT22;2218;51.408;7.208;2022-08-21T01:42:38;25.40;52.00
4411;DHT22;2218;51.408;7.208;2022-08-21T01:45:07;25.40;52.00
4411;DHT22;2218;51.408;7.208;2022-08-21T01:47:35;25.40;52.00
4411;DHT22;2218;51.408;7.208;2022-08-21T01:50:05;25.40;52.00
4411;DHT22;2218;51.408;7.208;2022-08-21T01:52:35;25.40;52.00
4411;DHT22;2218;51.408;7.208;2022-08-21T01:55:05;25.40;52.00
4411;DHT22;2218;51.408;7.208;2022-08-21T01:57:34;25.40;52.00
4411;DHT22;2218;51.408;7.208;2022-08-21T02:00:04;25.40;52.00
4411;DHT22;2218;51.408;7.208;2022-08-21T02:02:37;25.40;52.00
4411;DHT22;2218;51.408;7.208;2022-08-21T02:05:05;25.40;52.00
4411;DHT22;2218;51.408;7.208;2022-08-21T02:07:36;25.40;52.00
4411;DHT22;2218;51.408;7.208;2022-08-21T02:10:07;25.40;52.00
4411;DHT22;2218;51.408;7.208;2022-08-21T02:12:36;25.30;52.00
4411;DHT22;2218;51.408;7.208;2022-08-21T02:15:05;25.40;52.00
4411;DHT22;2218;51.408;7.208;2022-08-21T02:17:40;25.40;52.00
4411;DHT22;2218;51.408;7.208;2022-08-21T02:20:09;25.40;52.00
4411;DHT22;2218;51.408;7.208;2022-08-21T02:22:37;25.40;52.00
4411;DHT22;2218;51.408;7.208;2022-08-21T02:25:06;25.30;52.00
4411;DHT22;2218;51.408;7.208;2022-08-21T02:27:38;25.30;52.00
4411;DHT22;2218;51.408;7.208;2022-08-21T02:30:08;25.30;52.00
4411;DHT22;2218;51.408;7.208;2022-08-21T02:32:38;25.30;52.00
4411;DHT22;2218;51.408;7.208;2022-08-21T02:35:06;25.30;52.00
4411;DHT22;2218;51.408;7.208;2022-08-21T02:37:41;25.30;52.00
4411;DHT22;2218;51.408;7.208;2022-08-21T02:40:12;25.30;52.00
4411;DHT22;2218;51.408;7.208;2022-08-21T02:42:40;25.30;52.00
4411;DHT22;2218;51.408;7.208;2022-08-21T02:45:10;25.30;52.00
4411;DHT22;2218;51.408;7.208;2022-08-21T02:47:38;25.30;52.00
4411;DHT22;2218;51.408;7.208;2022-08-21T02:50:06;25.30;52.00
4411;DHT22;2218;51.408;7.208;2022-08-21T02:52:34;25.30;52.00
4411;DHT22;2218;51.408;7.208;2022-08-21T02:55:02;25.30;52.00
4411;DHT22;2218;51.408;7.208;2022-08-21T02:57:31;25.30;52.00
4411;DHT22;2218;51.408;7.208;2022-08-21T02:59:58;25.30;52.00
4411;DHT22;2218;51.408;7.208;2022-08-21T03:02:25;25.30;52.00
4411;DHT22;2218;51.408;7.208;2022-08-21T03:04:52;25.30;52.00
4411;DHT22;2218;51.408;7.208;2022-08-21T03:07:19;25.30;52.00
4411;DHT22;2218;51.408;7.208;2022-08-21T03:09:47;25.30;52.00
4411;DHT22;2218;51.408;7.208;2022-08-21T03:12:14;25.30;52.00
4411;DHT22;2218;51.408;7.208;2022-08-21T03:14:42;25.30;52.00
4411;DHT22;2218;51.408;7.208;2022-08-21T03:17:09;25.30;52.00
4411;DHT22;2218;51.408;7.208;2022-08-21T03:19:36;25.30;52.50
4411;DHT22;2218;51.408;7.208;2022-08-21T03:22:03;25.30;52.00
4411;DHT22;2218;51.408;7.208;2022-08-21T03:24:30;25.30;52.00
4411;DHT22;2218;51.408;7.208;2022-08-21T03:26:57;25.30;52.00
4411;DHT22;2218;51.408;7.208;2022-08-21T03:29:25;25.30;52.00
4411;DHT22;2218;51.408;7.208;2022-08-21T03:31:53;25.30;52.00
4411;DHT22;2218;51.408;7.208;2022-08-21T03:34:21;25.20;51.90
4411;DHT22;2218;51.408;7.208;2022-08-21T03:36:48;25.20;51.90
4411;DHT22;2218;51.408;7.208;2022-08-21T03:39:15;25.20;51.90
4411;DHT22;2218;51.408;7.208;2022-08-21T03:41:43;25.20;51.90
4411;DHT22;2218;51.408;7.208;2022-08-21T03:44:10;25.20;51.90
4411;DHT22;2218;51.408;7.208;2022-08-21T03:46:37;25.20;51.90
4411;DHT22;2218;51.408;7.208;2022-08-21T03:49:07;25.20;51.90
4411;DHT22;2218;51.408;7.208;2022-08-21T03:51:34;25.20;51.90
4411;DHT22;2218;51.408;7.208;2022-08-21T03:54:01;25.20;51.90
4411;DHT22;2218;51.408;7.208;2022-08-21T03:56:28;25.20;51.90
4411;DHT22;2218;51.408;7.208;2022-08-21T03:58:55;25.20;51.90
4411;DHT22;2218;51.408;7.208;2022-08-21T04:01:22;25.20;51.90
4411;DHT22;2218;51.408;7.208;2022-08-21T04:03:49;25.20;51.90
4411;DHT22;2218;51.408;7.208;2022-08-21T04:06:17;25.20;51.90
4411;DHT22;2218;51.408;7.208;2022-08-21T04:08:44;25.20;51.90
4411;DHT22;2218;51.408;7.208;2022-08-21T04:11:11;25.20;51.90
4411;DHT22;2218;51.408;7.208;2022-08-21T04:13:40;25.20;51.90
4411;DHT22;2218;51.408;7.208;2022-08-21T04:16:07;25.20;51.90
4411;DHT22;2218;51.408;7.208;2022-08-21T04:18:34;25.20;51.90
4411;DHT22;2218;51.408;7.208;2022-08-21T04:21:02;25.20;51.90
4411;DHT22;2218;51.408;7.208;2022-08-21T04:23:31;25.20;51.90
4411;DHT22;2218;51.408;7.208;2022-08-21T04:25:58;25.20;51.90
4411;DHT22;2218;51.408;7.208;2022-08-21T04:28:27;25.20;51.90
4411;DHT22;2218;51.408;7.208;2022-08-21T04:30:54;25.20;51.90
4411;DHT22;2218;51.408;7.208;2022-08-21T04:33:22;25.20;51.90
4411;DHT22;2218;51.408;7.208;2022-08-21T04:35:50;25.20;51.90
4411;DHT22;2218;51.408;7.208;2022-08-21T04:38:17;25.20;52.40
4411;DHT22;2218;51.408;7.208;2022-08-21T04:40:45;25.20;51.90
4411;DHT22;2218;51.408;7.208;2022-08-21T04:43:14;25.20;51.90
4411;DHT22;2218;51.408;7.208;2022-08-21T04:45:43;25.20;51.90
4411;DHT22;2218;51.408;7.208;2022-08-21T04:48:12;25.20;51.90
4411;DHT22;2218;51.408;7.208;2022-08-21T04:50:43;25.20;51.90
4411;DHT22;2218;51.408;7.208;2022-08-21T04:53:18;25.20;51.90
4411;DHT22;2218;51.408;7.208;2022-08-21T04:55:51;25.10;51.90
4411;DHT22;2218;51.408;7.208;2022-08-21T04:58:22;25.10;51.90
4411;DHT22;2218;51.408;7.208;2022-08-21T05:00:54;25.20;51.90
4411;DHT22;2218;51.408;7.208;2022-08-21T05:03:23;25.20;51.90
4411;DHT22;2218;51.408;7.208;2022-08-21T05:05:51;25.10;51.90
4411;DHT22;2218;51.408;7.208;2022-08-21T05:08:22;25.10;51.80
4411;DHT22;2218;51.408;7.208;2022-08-21T05:10:54;25.10;51.80
4411;DHT22;2218;51.408;7.208;2022-08-21T05:13:21;25.20;51.90
4411;DHT22;2218;51.408;7.208;2022-08-21T05:15:48;25.10;51.80
4411;DHT22;2218;51.408;7.208;2022-08-21T05:18:15;25.10;51.80
4411;DHT22;2218;51.408;7.208;2022-08-21T05:20:42;25.10;51.80
4411;DHT22;2218;51.408;7.208;2022-08-21T05:23:12;25.10;51.90
4411;DHT22;2218;51.408;7.208;2022-08-21T05:25:41;25.10;51.90
4411;DHT22;2218;51.408;7.208;2022-08-21T05:28:10;25.10;51.90
4411;DHT22;2218;51.408;7.208;2022-08-21T05:30:39;25.10;52.30
4411;DHT22;2218;51.408;7.208;2022-08-21T05:33:06;25.10;51.80
4411;DHT22;2218;51.408;7.208;2022-08-21T05:35:34;25.10;51.90
4411;DHT22;2218;51.408;7.208;2022-08-21T05:38:01;25.10;51.90
4411;DHT22;2218;51.408;7.208;2022-08-21T05:40:28;25.10;51.90
4411;DHT22;2218;51.408;7.208;2022-08-21T05:42:56;25.10;51.90
4411;DHT22;2218;51.408;7.208;2022-08-21T05:45:28;25.10;51.80
4411;DHT22;2218;51.408;7.208;2022-08-21T05:47:56;25.10;51.80
4411;DHT22;2218;51.408;7.208;2022-08-21T05:50:24;25.10;51.80
4411;DHT22;2218;51.408;7.208;2022-08-21T05:52:51;25.10;51.80
4411;DHT22;2218;51.408;7.208;2022-08-21T05:55:18;25.10;51.80
4411;DHT22;2218;51.408;7.208;2022-08-21T05:57:45;25.10;51.80
4411;DHT22;2218;51.408;7.208;2022-08-21T06:00:13;25.20;51.90
4411;DHT22;2218;51.408;7.208;2022-08-21T06:02:43;25.20;51.90
4411;DHT22;2218;51.408;7.208;2022-08-21T06:05:10;25.20;51.90
4411;DHT22;2218;51.408;7.208;2022-08-21T06:07:37;25.20;51.90
4411;DHT22;2218;51.408;7.208;2022-08-21T06:10:05;25.20;51.80
4411;DHT22;2218;51.408;7.208;2022-08-21T06:12:33;25.20;51.80
4411;DHT22;2218;51.408;7.208;2022-08-21T06:14:59;25.20;51.80
4411;DHT22;2218;51.408;7.208;2022-08-21T06:17:27;25.20;51.80
4411;DHT22;2218;51.408;7.208;2022-08-21T06:19:55;25.20;51.80
4411;DHT22;2218;51.408;7.208;2022-08-21T06:22:22;25.30;51.70
4411;DHT22;2218;51.408;7.208;2022-08-21T06:24:49;25.30;51.70
4411;DHT22;2218;51.408;7.208;2022-08-21T06:27:16;25.20;51.60
4411;DHT22;2218;51.408;7.208;2022-08-21T06:29:43;25.30;51.60
4411;DHT22;2218;51.408;7.208;2022-08-21T06:32:12;25.30;51.60
4411;DHT22;2218;51.408;7.208;2022-08-21T06:34:40;25.30;51.50
4411;DHT22;2218;51.408;7.208;2022-08-21T06:37:09;25.30;51.60
4411;DHT22;2218;51.408;7.208;2022-08-21T06:39:36;25.30;51.50
4411;DHT22;2218;51.408;7.208;2022-08-21T06:42:03;25.30;51.50
4411;DHT22;2218;51.408;7.208;2022-08-21T06:44:31;25.30;51.50
4411;DHT22;2218;51.408;7.208;2022-08-21T06:46:58;25.30;51.50
4411;DHT22;2218;51.408;7.208;2022-08-21T06:49:25;25.30;51.40
4411;DHT22;2218;51.408;7.208;2022-08-21T06:51:52;25.40;51.50
4411;DHT22;2218;51.408;7.208;2022-08-21T06:54:20;25.40;51.40
4411;DHT22;2218;51.408;7.208;2022-08-21T06:56:47;25.40;51.40
4411;DHT22;2218;51.408;7.208;2022-08-21T06:59:14;25.40;51.40
4411;DHT22;2218;51.408;7.208;2022-08-21T07:01:41;25.40;51.30
4411;DHT22;2218;51.408;7.208;2022-08-21T07:04:08;25.40;51.30
4411;DHT22;2218;51.408;7.208;2022-08-21T07:06:36;25.40;51.20
4411;DHT22;2218;51.408;7.208;2022-08-21T07:09:03;25.40;51.20
4411;DHT22;2218;51.408;7.208;2022-08-21T07:11:31;25.40;51.20
4411;DHT22;2218;51.408;7.208;2022-08-21T07:13:58;25.40;51.10
4411;DHT22;2218;51.408;7.208;2022-08-21T07:16:25;25.40;51.10
4411;DHT22;2218;51.408;7.208;2022-08-21T07:18:52;25.40;51.10
4411;DHT22;2218;51.408;7.208;2022-08-21T07:21:19;25.40;51.60
4411;DHT22;2218;51.408;7.208;2022-08-21T07:23:49;25.50;51.10
4411;DHT22;2218;51.408;7.208;2022-08-21T07:26:19;25.50;51.20
4411;DHT22;2218;51.408;7.208;2022-08-21T07:28:50;25.50;51.10
4411;DHT22;2218;51.408;7.208;2022-08-21T07:31:18;25.50;51.00
4411;DHT22;2218;51.408;7.208;2022-08-21T07:33:48;25.50;50.90
4411;DHT22;2218;51.408;7.208;2022-08-21T07:36:15;25.50;50.90
4411;DHT22;2218;51.408;7.208;2022-08-21T07:38:43;25.50;50.90
4411;DHT22;2218;51.408;7.208;2022-08-21T07:41:17;25.50;50.90
4411;DHT22;2218;51.408;7.208;2022-08-21T07:43:46;25.50;50.80
4411;DHT22;2218;51.408;7.208;2022-08-21T07:46:14;25.50;50.90
4411;DHT22;2218;51.408;7.208;2022-08-21T07:48:41;25.60;51.00
4411;DHT22;2218;51.408;7.208;2022-08-21T07:51:11;25.60;51.00
4411;DHT22;2218;51.408;7.208;2022-08-21T07:53:39;25.60;51.00
4411;DHT22;2218;51.408;7.208;2022-08-21T07:56:07;25.60;51.00
4411;DHT22;2218;51.408;7.208;2022-08-21T07:58:36;25.60;51.00
4411;DHT22;2218;51.408;7.208;2022-08-21T08:01:05;25.60;51.00
4411;DHT22;2218;51.408;7.208;2022-08-21T08:03:34;25.60;51.00
4411;DHT22;2218;51.408;7.208;2022-08-21T08:06:01;25.60;51.00
4411;DHT22;2218;51.408;7.208;2022-08-21T08:08:30;25.60;51.00
4411;DHT22;2218;51.408;7.208;2022-08-21T08:10:58;25.60;51.10
4411;DHT22;2218;51.408;7.208;2022-08-21T08:13:27;25.60;51.10
4411;DHT22;2218;51.408;7.208;2022-08-21T08:15:54;25.60;51.10
4411;DHT22;2218;51.408;7.208;2022-08-21T08:18:21;25.60;51.00
4411;DHT22;2218;51.408;7.208;2022-08-21T08:20:49;25.60;51.00
4411;DHT22;2218;51.408;7.208;2022-08-21T08:23:16;25.60;51.00
4411;DHT22;2218;51.408;7.208;2022-08-21T08:25:43;25.60;51.00
4411;DHT22;2218;51.408;7.208;2022-08-21T08:28:10;25.60;51.10
4411;DHT22;2218;51.408;7.208;2022-08-21T08:30:37;25.70;51.10
4411;DHT22;2218;51.408;7.208;2022-08-21T08:33:04;25.70;51.10
4411;DHT22;2218;51.408;7.208;2022-08-21T08:35:31;25.70;51.10
4411;DHT22;2218;51.408;7.208;2022-08-21T08:37:59;25.70;51.10
4411;DHT22;2218;51.408;7.208;2022-08-21T08:40:32;25.70;51.10
4411;DHT22;2218;51.408;7.208;2022-08-21T08:43:05;25.70;51.10
4411;DHT22;2218;51.408;7.208;2022-08-21T08:45:37;25.70;51.10
4411;DHT22;2218;51.408;7.208;2022-08-21T08:48:09;25.70;51.10
4411;DHT22;2218;51.408;7.208;2022-08-21T08:50:45;25.70;51.00
4411;DHT22;2218;51.408;7.208;2022-08-21T08:53:20;25.70;51.00
4411;DHT22;2218;51.408;7.208;2022-08-21T08:55:51;25.70;50.90
4411;DHT22;2218;51.408;7.208;2022-08-21T08:58:22;25.70;50.80
4411;DHT22;2218;51.408;7.208;2022-08-21T09:00:52;25.70;50.90
4411;DHT22;2218;51.408;7.208;2022-08-21T09:03:22;25.70;51.00
4411;DHT22;2218;51.408;7.208;2022-08-21T09:05:55;25.70;51.10
4411;DHT22;2218;51.408;7.208;2022-08-21T09:08:46;25.70;51.10
4411;DHT22;2218;51.408;7.208;2022-08-21T09:11:27;25.70;50.80
4411;DHT22;2218;51.408;7.208;2022-08-21T09:14:07;25.70;51.00
4411;DHT22;2218;51.408;7.208;2022-08-21T09:16:50;25.70;51.20
4411;DHT22;2218;51.408;7.208;2022-08-21T09:19:39;25.70;50.90
4411;DHT22;2218;51.408;7.208;2022-08-21T09:22:22;25.70;51.10
4411;DHT22;2218;51.408;7.208;2022-08-21T09:25:02;25.70;51.00
4411;DHT22;2218;51.408;7.208;2022-08-21T09:27:35;25.70;51.10
4411;DHT22;2218;51.408;7.208;2022-08-21T09:30:04;25.70;51.20
4411;DHT22;2218;51.408;7.208;2022-08-21T09:32:35;25.70;51.00
4411;DHT22;2218;51.408;7.208;2022-08-21T09:35:07;25.70;51.00
4411;DHT22;2218;51.408;7.208;2022-08-21T09:37:47;25.70;50.80
4411;DHT22;2218;51.408;7.208;2022-08-21T09:40:27;25.70;50.90
4411;DHT22;2218;51.408;7.208;2022-08-21T09:43:01;25.70;50.70
4411;DHT22;2218;51.408;7.208;2022-08-21T09:45:31;25.70;50.90
4411;DHT22;2218;51.408;7.208;2022-08-21T09:48:09;25.70;51.30
4411;DHT22;2218;51.408;7.208;2022-08-21T09:50:37;25.70;50.60
4411;DHT22;2218;51.408;7.208;2022-08-21T09:53:13;25.70;50.40
4411;DHT22;2218;51.408;7.208;2022-08-21T09:55:51;25.70;50.50
4411;DHT22;2218;51.408;7.208;2022-08-21T09:58:40;25.70;50.50
4411;DHT22;2218;51.408;7.208;2022-08-21T10:01:15;25.70;50.40
4411;DHT22;2218;51.408;7.208;2022-08-21T10:03:43;25.70;50.40
4411;DHT22;2218;51.408;7.208;2022-08-21T10:06:23;25.70;50.60
4411;DHT22;2218;51.408;7.208;2022-08-21T10:09:04;25.70;50.60
4411;DHT22;2218;51.408;7.208;2022-08-21T10:11:34;25.70;50.60
4411;DHT22;2218;51.408;7.208;2022-08-21T10:14:10;25.70;50.70
4411;DHT22;2218;51.408;7.208;2022-08-21T10:16:53;25.70;50.70
4411;DHT22;2218;51.408;7.208;2022-08-21T10:19:35;25.70;50.80
4411;DHT22;2218;51.408;7.208;2022-08-21T10:22:21;25.70;51.50
4411;DHT22;2218;51.408;7.208;2022-08-21T10:25:07;25.60;51.10
4411;DHT22;2218;51.408;7.208;2022-08-21T10:27:51;25.70;51.30
4411;DHT22;2218;51.408;7.208;2022-08-21T10:30:38;25.70;51.30
4411;DHT22;2218;51.408;7.208;2022-08-21T10:33:23;25.70;51.40
4411;DHT22;2218;51.408;7.208;2022-08-21T10:36:03;25.70;51.40
4411;DHT22;2218;51.408;7.208;2022-08-21T10:38:53;25.70;51.30
4411;DHT22;2218;51.408;7.208;2022-08-21T10:41:38;25.70;51.40
4411;DHT22;2218;51.408;7.208;2022-08-21T10:44:24;25.70;51.30
4411;DHT22;2218;51.408;7.208;2022-08-21T10:47:02;25.70;51.40
4411;DHT22;2218;51.408;7.208;2022-08-21T10:49:39;25.70;51.30
4411;DHT22;2218;51.408;7.208;2022-08-21T10:52:33;25.70;51.30
4411;DHT22;2218;51.408;7.208;2022-08-21T10:55:17;25.70;51.30
4411;DHT22;2218;51.408;7.208;2022-08-21T10:57:49;25.70;51.30
4411;DHT22;2218;51.408;7.208;2022-08-21T11:00:24;25.70;51.30
4411;DHT22;2218;51.408;7.208;2022-08-21T11:03:00;25.70;51.20
4411;DHT22;2218;51.408;7.208;2022-08-21T11:05:33;25.70;51.30
4411;DHT22;2218;51.408;7.208;2022-08-21T11:08:09;25.70;51.30
4411;DHT22;2218;51.408;7.208;2022-08-21T11:10:42;25.70;51.20
4411;DHT22;2218;51.408;7.208;2022-08-21T11:13:17;25.70;51.20
4411;DHT22;2218;51.408;7.208;2022-08-21T11:15:55;25.70;51.30
4411;DHT22;2218;51.408;7.208;2022-08-21T11:18:31;25.70;51.20
4411;DHT22;2218;51.408;7.208;2022-08-21T11:21:19;25.70;51.20
4411;DHT22;2218;51.408;7.208;2022-08-21T11:24:02;25.70;51.20
4411;DHT22;2218;51.408;7.208;2022-08-21T11:26:44;25.70;51.20
4411;DHT22;2218;51.408;7.208;2022-08-21T11:29:24;25.70;51.10
4411;DHT22;2218;51.408;7.208;2022-08-21T11:32:15;25.70;51.20
4411;DHT22;2218;51.408;7.208;2022-08-21T11:35:10;25.70;51.20
4411;DHT22;2218;51.408;7.208;2022-08-21T11:37:56;25.70;51.10
4411;DHT22;2218;51.408;7.208;2022-08-21T11:40:44;25.70;51.10
4411;DHT22;2218;51.408;7.208;2022-08-21T11:43:26;25.70;51.10
4411;DHT22;2218;51.408;7.208;2022-08-21T11:46:11;25.70;51.10
4411;DHT22;2218;51.408;7.208;2022-08-21T11:49:05;25.70;51.20
4411;DHT22;2218;51.408;7.208;2022-08-21T11:51:45;25.70;51.10
4411;DHT22;2218;51.408;7.208;2022-08-21T11:54:25;25.70;51.10
4411;DHT22;2218;51.408;7.208;2022-08-21T11:56:58;25.70;51.10
4411;DHT22;2218;51.408;7.208;2022-08-21T11:59:34;25.70;51.10
4411;DHT22;2218;51.408;7.208;2022-08-21T12:02:12;25.70;51.00
4411;DHT22;2218;51.408;7.208;2022-08-21T12:04:48;25.70;51.00
4411;DHT22;2218;51.408;7.208;2022-08-21T12:07:34;25.70;51.00
4411;DHT22;2218;51.408;7.208;2022-08-21T12:10:08;25.70;51.50
4411;DHT22;2218;51.408;7.208;2022-08-21T12:12:38;25.70;51.00
4411;DHT22;2218;51.408;7.208;2022-08-21T12:15:25;25.70;51.00
4411;DHT22;2218;51.408;7.208;2022-08-21T12:17:58;25.70;51.00
4411;DHT22;2218;51.408;7.208;2022-08-21T12:20:37;25.70;51.00
4411;DHT22;2218;51.408;7.208;2022-08-21T12:23:24;25.70;51.00
4411;DHT22;2218;51.408;7.208;2022-08-21T12:26:22;25.70;50.90
4411;DHT22;2218;51.408;7.208;2022-08-21T12:29:04;25.70;51.00
4411;DHT22;2218;51.408;7.208;2022-08-21T12:31:34;25.70;51.00
4411;DHT22;2218;51.408;7.208;2022-08-21T12:34:02;25.70;50.90
4411;DHT22;2218;51.408;7.208;2022-08-21T12:36:43;25.70;51.00
4411;DHT22;2218;51.408;7.208;2022-08-21T12:39:15;25.70;50.90
4411;DHT22;2218;51.408;7.208;2022-08-21T12:41:52;25.70;50.80
4411;DHT22;2218;51.408;7.208;2022-08-21T12:44:28;25.70;50.80
4411;DHT22;2218;51.408;7.208;2022-08-21T12:47:05;25.70;50.90
4411;DHT22;2218;51.408;7.208;2022-08-21T12:49:36;25.70;50.90
4411;DHT22;2218;51.408;7.208;2022-08-21T12:52:14;25.70;50.90
4411;DHT22;2218;51.408;7.208;2022-08-21T12:54:47;25.70;50.90
4411;DHT22;2218;51.408;7.208;2022-08-21T12:57:20;25.70;50.80
4411;DHT22;2218;51.408;7.208;2022-08-21T12:59:53;25.70;50.80
4411;DHT22;2218;51.408;7.208;2022-08-21T13:02:25;25.70;50.70
4411;DHT22;2218;51.408;7.208;2022-08-21T13:04:56;25.70;50.80
4411;DHT22;2218;51.408;7.208;2022-08-21T13:07:29;25.70;50.80
4411;DHT22;2218;51.408;7.208;2022-08-21T13:10:01;25.70;50.70
4411;DHT22;2218;51.408;7.208;2022-08-21T13:12:32;25.70;50.70
4411;DHT22;2218;51.408;7.208;2022-08-21T13:15:04;25.70;50.70
4411;DHT22;2218;51.408;7.208;2022-08-21T13:17:35;25.70;50.70
4411;DHT22;2218;51.408;7.208;2022-08-21T13:20:08;25.70;50.80
4411;DHT22;2218;51.408;7.208;2022-08-21T13:22:42;25.70;50.70
4411;DHT22;2218;51.408;7.208;2022-08-21T13:25:12;25.70;50.70
4411;DHT22;2218;51.408;7.208;2022-08-21T13:27:42;25.70;50.70
4411;DHT22;2218;51.408;7.208;2022-08-21T13:30:20;25.70;50.80
4411;DHT22;2218;51.408;7.208;2022-08-21T13:32:50;25.70;50.70
4411;DHT22;2218;51.408;7.208;2022-08-21T13:35:25;25.70;50.70
4411;DHT22;2218;51.408;7.208;2022-08-21T13:37:56;25.70;50.70
4411;DHT22;2218;51.408;7.208;2022-08-21T13:40:29;25.70;50.80
4411;DHT22;2218;51.408;7.208;2022-08-21T13:42:59;25.70;50.70
4411;DHT22;2218;51.408;7.208;2022-08-21T13:45:30;25.70;50.70
4411;DHT22;2218;51.408;7.208;2022-08-21T13:48:00;25.70;50.70
4411;DHT22;2218;51.408;7.208;2022-08-21T13:50:28;25.70;50.80
4411;DHT22;2218;51.408;7.208;2022-08-21T13:53:00;25.70;50.70
4411;DHT22;2218;51.408;7.208;2022-08-21T13:55:40;25.70;50.60
4411;DHT22;2218;51.408;7.208;2022-08-21T13:58:09;25.70;50.70
4411;DHT22;2218;51.408;7.208;2022-08-21T14:00:45;25.70;50.60
4411;DHT22;2218;51.408;7.208;2022-08-21T14:03:27;25.70;50.60
4411;DHT22;2218;51.408;7.208;2022-08-21T14:05:59;25.70;50.60
4411;DHT22;2218;51.408;7.208;2022-08-21T14:08:32;25.70;50.60
4411;DHT22;2218;51.408;7.208;2022-08-21T14:11:03;25.70;50.50
4411;DHT22;2218;51.408;7.208;2022-08-21T14:13:39;25.70;50.50
4411;DHT22;2218;51.408;7.208;2022-08-21T14:16:16;25.70;50.50
4411;DHT22;2218;51.408;7.208;2022-08-21T14:18:47;25.70;50.50
4411;DHT22;2218;51.408;7.208;2022-08-21T14:21:28;25.70;50.60
4411;DHT22;2218;51.408;7.208;2022-08-21T14:24:09;25.70;50.60
4411;DHT22;2218;51.408;7.208;2022-08-21T14:26:46;25.70;50.60
4411;DHT22;2218;51.408;7.208;2022-08-21T14:29:18;25.70;50.60
4411;DHT22;2218;51.408;7.208;2022-08-21T14:31:50;25.70;50.60
4411;DHT22;2218;51.408;7.208;2022-08-21T14:34:18;25.70;50.50
4411;DHT22;2218;51.408;7.208;2022-08-21T14:36:46;25.70;50.50
4411;DHT22;2218;51.408;7.208;2022-08-21T14:39:15;25.70;50.60
4411;DHT22;2218;51.408;7.208;2022-08-21T14:41:43;25.70;50.50
4411;DHT22;2218;51.408;7.208;2022-08-21T14:44:13;25.70;50.40
4411;DHT22;2218;51.408;7.208;2022-08-21T14:46:41;25.70;50.40
4411;DHT22;2218;51.408;7.208;2022-08-21T14:49:09;25.70;50.40
4411;DHT22;2218;51.408;7.208;2022-08-21T14:51:37;25.70;50.50
4411;DHT22;2218;51.408;7.208;2022-08-21T14:54:05;25.70;50.50
4411;DHT22;2218;51.408;7.208;2022-08-21T14:56:34;25.70;50.40
4411;DHT22;2218;51.408;7.208;2022-08-21T14:59:05;25.70;50.40
4411;DHT22;2218;51.408;7.208;2022-08-21T15:01:35;25.70;50.40
4411;DHT22;2218;51.408;7.208;2022-08-21T15:04:03;25.70;50.50
4411;DHT22;2218;51.408;7.208;2022-08-21T15:06:31;25.70;50.40
4411;DHT22;2218;51.408;7.208;2022-08-21T15:08:58;25.80;50.50
4411;DHT22;2218;51.408;7.208;2022-08-21T15:11:27;25.70;50.40
4411;DHT22;2218;51.408;7.208;2022-08-21T15:13:57;25.70;50.40
4411;DHT22;2218;51.408;7.208;2022-08-21T15:16:29;25.70;50.50
4411;DHT22;2218;51.408;7.208;2022-08-21T15:18:56;25.70;50.40
4411;DHT22;2218;51.408;7.208;2022-08-21T15:21:23;25.70;50.40
4411;DHT22;2218;51.408;7.208;2022-08-21T15:23:51;25.70;50.40
4411;DHT22;2218;51.408;7.208;2022-08-21T15:26:18;25.70;50.40
4411;DHT22;2218;51.408;7.208;2022-08-21T15:28:46;25.70;50.30
4411;DHT22;2218;51.408;7.208;2022-08-21T15:31:15;25.70;50.30
4411;DHT22;2218;51.408;7.208;2022-08-21T15:33:41;25.70;50.30
4411;DHT22;2218;51.408;7.208;2022-08-21T15:36:08;25.70;50.40
4411;DHT22;2218;51.408;7.208;2022-08-21T15:38:35;25.70;50.30
4411;DHT22;2218;51.408;7.208;2022-08-21T15:41:03;25.70;50.30
4411;DHT22;2218;51.408;7.208;2022-08-21T15:43:35;25.70;50.30
4411;DHT22;2218;51.408;7.208;2022-08-21T15:46:06;25.70;50.30
4411;DHT22;2218;51.408;7.208;2022-08-21T15:48:39;25.70;50.30
4411;DHT22;2218;51.408;7.208;2022-08-21T15:51:06;25.70;50.20
4411;DHT22;2218;51.408;7.208;2022-08-21T15:53:33;25.70;50.20
4411;DHT22;2218;51.408;7.208;2022-08-21T15:56:04;25.70;50.20
4411;DHT22;2218;51.408;7.208;2022-08-21T15:58:31;25.70;50.20
4411;DHT22;2218;51.408;7.208;2022-08-21T16:00:59;25.70;50.20
4411;DHT22;2218;51.408;7.208;2022-08-21T16:03:27;25.70;50.20
4411;DHT22;2218;51.408;7.208;2022-08-21T16:05:56;25.70;50.20
4411;DHT22;2218;51.408;7.208;2022-08-21T16:08:23;25.70;50.20
4411;DHT22;2218;51.408;7.208;2022-08-21T16:10:52;25.70;50.20
4411;DHT22;2218;51.408;7.208;2022-08-21T16:13:24;25.70;50.10
4411;DHT22;2218;51.408;7.208;2022-08-21T16:15:54;25.70;50.10
4411;DHT22;2218;51.408;7.208;2022-08-21T16:18:22;25.70;50.10
4411;DHT22;2218;51.408;7.208;2022-08-21T16:20:51;25.70;50.10
4411;DHT22;2218;51.408;7.208;2022-08-21T16:23:20;25.70;50.00
4411;DHT22;2218;51.408;7.208;2022-08-21T16:25:47;25.80;50.10
4411;DHT22;2218;51.408;7.208;2022-08-21T16:28:17;25.70;50.00